createdAt,value
2023-05-06T00:01:53.335Z,1.60
2023-05-06T00:04:20.020Z,2.00
2023-05-06T00:06:47.241Z,1.63
2023-05-06T00:09:13.873Z,1.55
2023-05-06T00:11:40.591Z,1.52
2023-05-06T00:14:07.265Z,1.60
2023-05-06T00:16:34.015Z,1.77
2023-05-06T00:19:00.997Z,1.83
2023-05-06T00:21:27.701Z,1.75
2023-05-06T00:23:54.383Z,1.90
2023-05-06T00:26:21.107Z,1.30
2023-05-06T00:28:47.770Z,1.83
2023-05-06T00:31:14.399Z,1.48
2023-05-06T00:33:41.529Z,1.40
2023-05-06T00:36:08.449Z,3.08
2023-05-06T00:38:35.690Z,3.67
2023-05-06T00:41:03.408Z,2.88
2023-05-06T00:43:30.022Z,2.47
2023-05-06T00:45:56.885Z,2.08
2023-05-06T00:48:23.540Z,1.60
2023-05-06T00:50:50.254Z,1.60
2023-05-06T00:53:20.120Z,1.50
2023-05-06T00:55:49.686Z,1.45
2023-05-06T00:58:16.289Z,1.52
2023-05-06T01:00:43.011Z,1.45
2023-05-06T01:03:09.720Z,1.40
2023-05-06T01:05:47.534Z,1.40
2023-05-06T06:02:37.320Z,2.78
2023-05-06T06:05:04.151Z,2.22
2023-05-06T06:07:30.603Z,2.38
2023-05-06T06:09:57.065Z,2.03
2023-05-06T06:12:23.626Z,2.20
2023-05-06T06:14:50.534Z,2.55
2023-05-06T06:17:21.094Z,2.40
2023-05-06T06:19:51.041Z,2.45
2023-05-06T06:22:17.775Z,2.47
2023-05-06T06:24:45.322Z,2.47
2023-05-06T06:27:11.755Z,2.88
2023-05-06T06:29:38.767Z,2.53
2023-05-06T06:32:05.647Z,2.50
2023-05-06T06:34:32.109Z,2.40
2023-05-06T06:36:58.910Z,2.90
2023-05-06T06:39:25.364Z,2.40
2023-05-06T06:41:51.878Z,2.47
2023-05-06T06:44:18.351Z,2.63
2023-05-06T06:46:44.971Z,4.00
2023-05-06T06:49:11.449Z,3.78
2023-05-06T06:51:37.925Z,4.03
2023-05-06T06:54:04.396Z,3.92
2023-05-06T06:56:31.756Z,4.00
2023-05-06T06:58:58.237Z,4.03
2023-05-06T07:01:24.682Z,3.30
2023-05-06T07:03:51.243Z,3.08
2023-05-06T07:06:17.659Z,2.88
2023-05-06T07:08:44.111Z,2.95
2023-05-06T07:11:14.360Z,2.90
2023-05-06T07:13:40.868Z,2.67
2023-05-06T07:16:07.378Z,2.70
2023-05-06T07:18:34.160Z,3.20
2023-05-06T07:21:00.687Z,2.92
2023-05-06T07:23:27.180Z,2.63
2023-05-06T07:25:53.610Z,2.20
2023-05-06T07:28:20.144Z,2.13
2023-05-06T07:30:46.844Z,2.13
2023-05-06T07:33:13.365Z,2.85
2023-05-06T07:35:39.779Z,2.95
2023-05-06T07:38:06.263Z,2.97
2023-05-06T07:40:32.768Z,3.28
2023-05-06T07:42:59.486Z,3.22
2023-05-06T07:45:26.106Z,3.65
2023-05-06T07:47:52.721Z,3.17
2023-05-06T07:50:19.263Z,3.05
2023-05-06T07:52:45.737Z,3.30
2023-05-06T07:55:12.454Z,3.15
2023-05-06T07:57:39.202Z,2.90
2023-05-06T08:00:06.364Z,3.33
2023-05-06T08:02:43.876Z,3.53
2023-05-06T08:05:11.117Z,3.80
2023-05-06T08:07:37.874Z,3.38
2023-05-06T08:10:04.693Z,3.53
2023-05-06T08:12:31.569Z,3.10
2023-05-06T08:14:58.281Z,3.60
2023-05-06T08:17:24.911Z,3.00
2023-05-06T08:19:51.339Z,2.78
2023-05-06T08:22:17.801Z,2.63
2023-05-06T08:24:44.845Z,3.10
2023-05-06T08:27:11.592Z,2.75
2023-05-06T08:29:37.995Z,2.70
2023-05-06T08:32:04.579Z,3.25
2023-05-06T08:47:00.673Z,2.42
2023-05-06T08:49:28.187Z,2.97
2023-05-06T08:51:55.189Z,3.30
2023-05-06T08:54:24.733Z,2.55
2023-05-06T08:56:56.929Z,2.30
2023-05-06T08:59:25.079Z,2.72
2023-05-06T09:01:52.343Z,1.98
2023-05-06T09:04:19.119Z,1.27
2023-05-06T09:06:46.057Z,1.73
2023-05-06T09:09:14.718Z,1.45
2023-05-06T09:11:41.332Z,1.60
2023-05-06T09:14:17.776Z,1.38
2023-05-06T09:16:46.360Z,0.95
2023-05-06T09:19:14.927Z,1.10
2023-05-06T09:21:43.335Z,1.00
2023-05-06T09:24:11.672Z,1.00
2023-05-06T09:26:39.073Z,1.10
2023-05-06T09:29:06.390Z,0.90
2023-05-06T09:31:33.223Z,1.13
2023-05-06T09:34:00.596Z,1.00
2023-05-06T09:36:28.125Z,0.90
2023-05-06T09:38:55.663Z,1.45
2023-05-06T09:41:25.103Z,1.10
2023-05-06T09:43:56.395Z,0.90
2023-05-06T09:46:23.814Z,1.00
2023-05-06T09:48:51.814Z,0.95
2023-05-06T09:51:18.715Z,1.00
2023-05-06T09:53:45.548Z,0.90
2023-05-06T09:56:13.102Z,0.80
2023-05-06T09:58:39.632Z,0.90
2023-05-06T10:01:07.472Z,1.20
2023-05-06T10:03:34.790Z,0.75
2023-05-06T10:06:02.440Z,1.00
2023-05-06T10:08:29.431Z,1.10
2023-05-06T10:10:56.707Z,1.25
2023-05-06T10:13:26.725Z,1.00
2023-05-06T10:15:53.514Z,1.42
2023-05-06T10:18:21.485Z,1.10
2023-05-06T10:20:48.965Z,1.13
2023-05-06T10:23:21.493Z,0.93
2023-05-06T10:25:52.028Z,0.90
2023-05-06T10:28:26.723Z,0.88
2023-05-06T10:30:58.714Z,0.75
2023-05-06T10:33:26.114Z,0.93
2023-05-06T10:36:03.278Z,0.98
2023-05-06T10:38:32.944Z,0.90
2023-05-06T10:40:59.715Z,1.00
2023-05-06T10:43:34.261Z,0.80
2023-05-06T10:46:09.528Z,1.10
2023-05-06T10:49:08.476Z,0.80
2023-05-06T10:51:36.367Z,0.82
2023-05-06T10:54:09.605Z,0.68
2023-05-06T10:56:38.722Z,0.90
2023-05-06T11:01:36.098Z,0.90
2023-05-06T11:04:07.732Z,0.70
2023-05-06T11:06:42.447Z,0.90
2023-05-06T11:09:23.121Z,1.00
2023-05-06T11:12:05.337Z,0.75
2023-05-06T11:14:36.963Z,0.60
2023-05-06T11:17:08.473Z,0.80
2023-05-06T11:19:36.522Z,0.80
2023-05-06T11:22:04.533Z,0.77
2023-05-06T11:24:38.360Z,0.80
2023-05-06T11:27:05.568Z,1.15
2023-05-06T11:29:32.231Z,0.70
2023-05-06T11:31:58.913Z,0.77
2023-05-06T11:34:30.048Z,0.80
2023-05-06T11:37:04.869Z,0.80
2023-05-06T11:39:36.714Z,0.70
2023-05-06T11:42:07.124Z,0.68
2023-05-06T11:44:35.512Z,0.80
2023-05-06T11:47:05.625Z,0.98
2023-05-06T11:49:43.089Z,0.73
2023-05-06T11:52:10.689Z,0.98
2023-05-06T11:54:41.847Z,0.80
2023-05-06T11:57:09.370Z,0.95
2023-05-06T11:59:37.765Z,1.00
2023-05-06T12:02:07.162Z,0.88
2023-05-06T12:07:06.284Z,0.90
2023-05-06T12:09:34.195Z,0.80
2023-05-06T12:12:02.695Z,0.80
2023-05-06T12:14:29.319Z,0.77
2023-05-06T12:16:56.247Z,0.70
2023-05-06T12:19:22.934Z,0.80
2023-05-06T12:21:49.336Z,1.00
2023-05-06T12:24:15.931Z,0.65
2023-05-06T12:26:44.340Z,0.63
2023-05-06T12:29:12.668Z,0.60
2023-05-06T12:31:39.545Z,0.90
2023-05-06T12:34:06.225Z,0.80
2023-05-06T12:36:33.055Z,1.00
2023-05-06T12:39:00.923Z,0.77
2023-05-06T12:41:45.456Z,0.70
2023-05-06T12:44:37.314Z,0.77
2023-05-06T12:47:08.792Z,0.73
2023-05-06T12:49:49.374Z,0.90
2023-05-06T12:52:16.173Z,0.70
2023-05-06T12:54:42.676Z,0.85
2023-05-06T12:57:09.106Z,0.80
2023-05-06T12:59:36.462Z,0.60
2023-05-06T13:02:04.103Z,0.77
2023-05-06T13:04:31.348Z,0.82
2023-05-06T13:06:58.394Z,0.60
2023-05-06T13:09:24.978Z,0.82
2023-05-06T13:11:51.489Z,0.70
2023-05-06T13:14:18.266Z,0.73
2023-05-06T13:16:45.421Z,0.70
2023-05-06T13:19:21.076Z,0.80
2023-05-06T13:21:58.612Z,0.85
2023-05-06T13:24:24.995Z,0.80
2023-05-06T13:26:51.482Z,1.00
2023-05-06T13:29:17.874Z,1.00
2023-05-06T13:31:44.581Z,0.70
2023-05-06T13:34:10.965Z,0.70
2023-05-06T13:36:37.569Z,0.70
2023-05-06T13:39:04.208Z,0.70
2023-05-06T13:41:30.684Z,0.68
2023-05-06T13:43:57.104Z,0.82
2023-05-06T13:46:23.624Z,0.90
2023-05-06T13:48:50.101Z,1.10
2023-05-06T13:51:16.489Z,0.90
2023-05-06T13:53:43.725Z,0.80
2023-05-06T13:56:10.136Z,0.80
2023-05-06T13:58:36.610Z,0.70
2023-05-06T14:01:03.554Z,1.02
2023-05-06T14:03:30.112Z,1.10
2023-05-06T14:05:56.558Z,1.15
2023-05-06T14:08:23.030Z,1.10
2023-05-06T14:10:49.471Z,0.90
2023-05-06T14:13:15.857Z,1.20
2023-05-06T14:15:42.420Z,1.08
2023-05-06T14:18:08.924Z,0.80
2023-05-06T14:20:35.443Z,0.80
2023-05-06T14:23:04.638Z,0.80
2023-05-06T14:25:31.168Z,0.90
2023-05-06T14:27:57.647Z,1.10
2023-05-06T14:30:24.539Z,1.10
2023-05-06T14:32:51.384Z,1.00
2023-05-06T14:35:18.312Z,1.00
2023-05-06T14:37:44.784Z,0.80
2023-05-06T14:40:11.368Z,0.88
2023-05-06T14:42:38.109Z,0.95
2023-05-06T14:45:04.985Z,0.93
2023-05-06T14:47:31.486Z,1.10
2023-05-06T14:49:57.973Z,1.33
2023-05-06T14:52:24.457Z,1.30
2023-05-06T14:54:50.840Z,1.27
2023-05-06T14:57:17.313Z,1.02
2023-05-06T14:59:43.810Z,1.10
2023-05-06T15:02:10.616Z,1.02
2023-05-06T15:04:37.120Z,1.10
2023-05-06T15:07:04.175Z,1.00
2023-05-06T15:09:31.018Z,0.90
2023-05-06T15:11:57.649Z,1.05
2023-05-06T15:14:24.167Z,1.30
2023-05-06T15:16:51.151Z,1.27
2023-05-06T15:19:17.549Z,1.40
2023-05-06T15:21:44.015Z,1.80
2023-05-06T15:24:10.476Z,1.60
2023-05-06T15:26:36.901Z,1.20
2023-05-06T15:29:03.434Z,1.40
2023-05-06T15:31:31.349Z,1.25
2023-05-06T15:34:00.353Z,1.40
2023-05-06T15:36:27.577Z,1.40
2023-05-06T15:39:00.337Z,1.70
2023-05-06T15:41:28.941Z,1.33
2023-05-06T15:43:59.747Z,1.40
2023-05-06T15:46:27.332Z,1.38
2023-05-06T15:49:12.351Z,1.40
2023-05-06T15:51:40.586Z,1.35
2023-05-06T15:54:07.026Z,1.40
2023-05-06T15:56:39.370Z,1.50
2023-05-06T15:59:08.148Z,1.42
2023-05-06T16:02:04.853Z,1.30
2023-05-06T16:04:21.235Z,1.60
2023-05-06T16:06:48.137Z,2.13
2023-05-06T16:09:14.668Z,1.20
2023-05-06T16:11:41.102Z,1.40
2023-05-06T16:14:07.573Z,1.30
2023-05-06T16:16:34.163Z,1.40
2023-05-06T16:19:00.618Z,1.33
2023-05-06T16:21:27.229Z,1.35
2023-05-06T16:23:53.654Z,1.13
2023-05-06T16:26:20.090Z,1.10
2023-05-06T16:28:46.526Z,1.08
2023-05-06T16:31:13.223Z,1.10
2023-05-06T16:33:39.725Z,1.20
2023-05-06T16:36:06.408Z,1.20
2023-05-06T16:38:32.870Z,1.45
2023-05-06T16:40:59.342Z,1.20
2023-05-06T16:43:25.812Z,1.23
2023-05-06T16:45:52.201Z,1.35
2023-05-06T16:48:18.909Z,1.20
2023-05-06T16:50:45.458Z,1.17
2023-05-06T16:53:12.044Z,1.10
2023-05-06T16:55:38.606Z,1.00
2023-05-06T16:58:05.083Z,1.20
2023-05-06T17:00:31.898Z,1.10
2023-05-06T17:02:58.411Z,0.90
2023-05-06T17:05:25.021Z,1.00
2023-05-06T17:07:51.449Z,1.20
2023-05-06T17:10:17.948Z,1.20
2023-05-06T17:12:44.720Z,1.27
2023-05-06T17:15:11.425Z,1.10
2023-05-06T17:17:38.637Z,1.20
2023-05-06T17:20:05.836Z,1.25
2023-05-06T17:22:32.241Z,1.20
2023-05-06T17:24:59.207Z,1.00
2023-05-06T17:27:25.646Z,0.95
2023-05-06T17:29:52.079Z,1.00
2023-05-06T17:32:19.805Z,1.20
2023-05-06T17:34:46.393Z,0.88
2023-05-06T17:37:12.867Z,1.00
2023-05-06T17:39:39.388Z,1.13
2023-05-06T17:42:05.911Z,1.20
2023-05-06T17:44:32.992Z,1.00
2023-05-06T17:46:59.531Z,1.05
2023-05-06T17:49:26.133Z,1.10
2023-05-06T17:51:52.892Z,1.00
2023-05-06T17:54:19.328Z,1.33
2023-05-06T17:56:50.357Z,1.23
2023-05-06T17:59:18.566Z,1.23
2023-05-06T18:01:45.398Z,1.00
2023-05-06T18:04:12.460Z,1.10
2023-05-06T18:06:41.233Z,1.05
2023-05-06T18:09:08.336Z,0.82
2023-05-06T18:11:35.129Z,0.90
2023-05-06T18:14:01.586Z,1.10
2023-05-06T18:16:28.045Z,0.93
2023-05-06T18:18:54.513Z,0.80
2023-05-06T18:21:21.100Z,0.93
2023-05-06T18:23:48.472Z,1.10
2023-05-06T18:26:27.265Z,1.02
2023-05-06T18:29:04.080Z,0.90
2023-05-06T18:31:30.576Z,0.80
2023-05-06T18:33:57.110Z,1.20
2023-05-06T18:36:23.556Z,1.30
2023-05-06T18:38:50.006Z,0.90
2023-05-06T18:41:16.498Z,1.10
2023-05-06T18:43:42.984Z,0.98
2023-05-06T18:46:09.543Z,0.88
2023-05-06T18:48:35.988Z,1.00
2023-05-06T18:51:21.309Z,0.90
2023-05-06T18:53:47.758Z,1.10
2023-05-06T18:56:14.188Z,1.10
2023-05-06T18:58:40.913Z,1.20
2023-05-06T19:01:08.879Z,1.20
2023-05-06T19:03:35.694Z,0.93
2023-05-06T19:06:04.888Z,0.90
2023-05-06T19:11:01.820Z,1.10
2023-05-06T19:13:28.662Z,0.90
2023-05-06T19:15:56.900Z,1.08
2023-05-06T19:18:23.355Z,1.23
2023-05-06T19:20:49.793Z,1.00
2023-05-06T19:23:16.264Z,1.05
2023-05-06T19:25:42.730Z,1.05
2023-05-06T19:28:09.538Z,1.00
2023-05-06T19:30:36.304Z,0.80
2023-05-06T19:33:03.469Z,1.15
2023-05-06T19:35:31.168Z,1.00
2023-05-06T19:37:58.126Z,1.05
2023-05-06T19:40:24.725Z,0.95
2023-05-06T19:42:52.032Z,1.10
2023-05-06T19:45:19.363Z,0.98
2023-05-06T19:47:46.160Z,0.98
2023-05-06T19:50:13.194Z,1.13
2023-05-06T19:52:40.033Z,1.00
2023-05-06T19:55:07.076Z,1.02
2023-05-06T19:57:33.804Z,1.00
2023-05-06T20:00:04.925Z,1.10
2023-05-06T20:02:32.445Z,1.02
2023-05-06T20:05:00.042Z,1.00
2023-05-06T20:07:26.495Z,1.00
2023-05-06T20:09:55.311Z,1.30
2023-05-06T20:12:22.888Z,1.67
2023-05-06T20:14:49.633Z,1.00
2023-05-06T20:17:16.575Z,1.38
2023-05-06T20:19:42.997Z,0.85
2023-05-06T20:22:09.453Z,1.05
2023-05-06T20:24:37.030Z,1.00
2023-05-06T20:27:03.572Z,0.90
2023-05-06T20:29:30.282Z,1.00
2023-05-06T20:31:56.772Z,0.93
2023-05-06T20:34:23.303Z,1.10
2023-05-06T20:36:49.893Z,0.90
2023-05-06T20:39:17.869Z,1.38
2023-05-06T20:41:44.386Z,0.90
2023-05-06T20:44:10.967Z,1.20
2023-05-06T20:46:37.409Z,1.10
2023-05-06T20:49:03.840Z,1.15
2023-05-06T20:51:30.374Z,1.10
2023-05-06T20:53:58.267Z,0.95
2023-05-06T20:56:25.710Z,1.33
2023-05-06T20:58:52.743Z,1.15
2023-05-06T21:01:20.428Z,1.35
2023-05-06T21:03:47.091Z,1.30
2023-05-06T21:06:16.955Z,1.10
2023-05-06T21:08:44.457Z,1.20
2023-05-06T21:11:11.089Z,1.35
2023-05-06T21:13:37.685Z,1.27
2023-05-06T21:16:04.591Z,1.42
2023-05-06T21:18:31.226Z,1.17
2023-05-06T21:20:57.860Z,1.52
2023-05-06T21:23:24.527Z,1.30
2023-05-06T21:25:50.963Z,1.55
2023-05-06T21:28:17.725Z,1.83
2023-05-06T21:30:44.588Z,1.55
2023-05-06T21:33:11.345Z,1.40
2023-05-06T21:35:37.925Z,1.33
2023-05-06T21:38:04.396Z,1.40
2023-05-06T21:40:30.892Z,1.65
2023-05-06T21:42:57.335Z,1.23
2023-05-06T21:45:23.813Z,1.40
2023-05-06T21:47:50.313Z,1.52
2023-05-06T21:50:16.847Z,1.30
2023-05-06T21:52:43.331Z,1.40
2023-05-06T21:55:10.091Z,1.50
2023-05-06T21:57:37.010Z,1.60
2023-05-06T22:00:11.821Z,1.50
2023-05-06T22:02:40.027Z,1.88
2023-05-06T22:05:13.164Z,1.83
2023-05-06T22:07:39.846Z,1.75
2023-05-06T22:10:07.013Z,1.70
2023-05-06T22:12:36.352Z,1.80
2023-05-06T22:15:03.253Z,1.60
2023-05-06T22:17:30.632Z,1.63
2023-05-06T22:19:57.057Z,1.85
2023-05-06T22:22:24.043Z,1.80
2023-05-06T22:24:50.587Z,1.60
2023-05-06T22:27:16.997Z,1.90
2023-05-06T22:29:43.467Z,1.70
2023-05-06T22:32:10.014Z,1.88
2023-05-06T22:34:36.484Z,1.40
2023-05-06T22:37:08.417Z,2.00
2023-05-06T22:39:35.429Z,1.88
2023-05-06T22:42:01.885Z,1.63
2023-05-06T22:44:28.410Z,1.65
2023-05-06T22:46:54.903Z,1.70
2023-05-06T22:49:21.752Z,1.55
2023-05-06T22:51:50.343Z,1.70
2023-05-06T22:54:16.934Z,1.60
2023-05-06T22:56:43.389Z,1.67
2023-05-06T22:59:09.835Z,1.70
2023-05-06T23:01:36.364Z,1.58
2023-05-06T23:04:02.995Z,1.58
2023-05-06T23:06:30.808Z,1.70
2023-05-06T23:08:57.653Z,1.70
2023-05-06T23:11:24.352Z,1.92
2023-05-06T23:13:50.821Z,2.05
2023-05-06T23:16:17.381Z,1.65
2023-05-06T23:18:44.030Z,1.98
2023-05-06T23:21:12.349Z,2.10
2023-05-06T23:23:38.821Z,2.27
2023-05-06T23:26:05.393Z,1.60
2023-05-06T23:28:31.815Z,1.98
2023-05-06T23:30:58.248Z,1.70
2023-05-06T23:33:24.802Z,1.90
2023-05-06T23:35:51.245Z,1.60
2023-05-06T23:38:17.755Z,1.98
2023-05-06T23:40:44.736Z,1.92
2023-05-06T23:43:11.405Z,2.10
2023-05-06T23:45:37.914Z,1.98
2023-05-06T23:48:04.961Z,2.22
2023-05-06T23:50:31.553Z,1.73
2023-05-06T23:52:58.013Z,1.90
2023-05-06T23:55:26.186Z,1.80
2023-05-06T23:57:52.696Z,1.85
